Time;durP1;ratioP1;P1;durP2;ratioP2;P2;SDS_P1;SDS_P2;PMS_P1;PMS_P2;Temp;Humidity;BMP_temperature;BMP_pressure;BME280_temperature;BME280_humidity;BME280_pressure;Samples;Min_cycle;Max_cycle;Signal;HPM_P1;HPM_P2
2022/10/03 00:02:28;;;;;;;12.23;2.83;;;10.70;99.90;;;;;;6095844;23;20275;-88
2022/10/03 00:05:08;;;;;;;15.43;2.87;;;10.70;99.90;;;;;;6190355;23;20195;-88
2022/10/03 00:07:53;;;;;;;10.73;2.50;;;10.70;99.90;;;;;;6241544;23;20601;-88
2022/10/03 00:10:25;;;;;;;14.47;3.33;;;10.70;99.90;;;;;;6166163;23;20162;-88
2022/10/03 00:13:05;;;;;;;15.20;2.87;;;10.70;1.00;;;;;;6242183;23;20269;-88
2022/10/03 00:15:37;;;;;;;17.13;3.00;;;10.80;1.00;;;;;;6241062;23;20262;-88
2022/10/03 00:18:30;;;;;;;11.10;2.30;;;10.80;1.00;;;;;;6242650;23;20165;-89
2022/10/03 00:21:25;;;;;;;11.97;2.67;;;10.80;6.80;;;;;;6242890;23;20160;-89
2022/10/03 00:23:51;;;;;;;12.13;2.50;;;10.80;1.00;;;;;;6248894;22;20240;-88
2022/10/03 00:26:29;;;;;;;15.70;3.10;;;10.80;1.00;;;;;;6243436;23;20653;-88
2022/10/03 00:29:27;;;;;;;13.83;3.67;;;10.70;38.10;;;;;;6242963;22;20145;-88
2022/10/03 00:32:14;;;;;;;15.93;6.03;;;10.80;39.90;;;;;;6242486;23;20181;-88
2022/10/03 00:35:14;;;;;;;13.53;4.10;;;10.80;99.90;;;;;;6242708;23;20173;-89
2022/10/03 00:38:08;;;;;;;18.07;3.80;;;10.80;99.90;;;;;;6242985;23;20781;-88
2022/10/03 00:40:54;;;;;;;14.23;5.17;;;10.80;99.90;;;;;;6243195;23;20169;-88
2022/10/03 00:43:42;;;;;;;21.85;6.22;;;10.80;99.90;;;;;;6242855;23;20694;-88
2022/10/03 00:46:56;;;;;;;15.87;4.87;;;10.70;63.60;;;;;;6243628;23;20257;-88
2022/10/03 00:49:37;;;;;;;17.57;5.33;;;10.70;99.90;;;;;;6244170;23;20906;-88
2022/10/03 00:52:34;;;;;;;21.17;7.73;;;10.70;99.90;;;;;;6245320;23;20166;-88
2022/10/03 00:55:05;;;;;;;21.43;7.90;;;10.70;99.90;;;;;;6244488;23;20644;-88
2022/10/03 00:58:02;;;;;;;21.57;5.10;;;10.70;99.90;;;;;;6244577;23;20256;-87
2022/10/03 01:00:30;;;;;;;20.40;6.47;;;10.70;99.90;;;;;;6244222;23;20150;-88
2022/10/03 01:03:11;;;;;;;22.20;6.87;;;10.70;99.90;;;;;;6243900;23;20177;-88
2022/10/03 01:05:48;;;;;;;15.68;3.85;;;10.60;99.90;;;;;;6243970;23;20174;-88
2022/10/03 01:08:51;;;;;;;22.92;7.05;;;10.70;99.90;;;;;;6244493;23;20228;-88
2022/10/03 01:12:07;;;;;;;13.00;4.10;;;10.60;99.90;;;;;;6244056;23;20603;-89
2022/10/03 01:14:48;;;;;;;15.73;4.67;;;10.70;99.90;;;;;;6180960;23;20239;-88
2022/10/03 01:17:54;;;;;;;18.23;4.63;;;10.70;99.90;;;;;;6244296;23;20156;-88
2022/10/03 01:20:44;;;;;;;16.33;5.83;;;10.70;99.90;;;;;;6098780;23;20167;-89
2022/10/03 01:23:38;;;;;;;18.63;4.23;;;10.60;99.90;;;;;;6243052;23;20177;-88
2022/10/03 01:26:26;;;;;;;14.70;3.90;;;10.70;99.90;;;;;;6177234;23;20243;-88
2022/10/03 01:32:11;;;;;;;13.90;2.67;;;10.70;99.90;;;;;;6244886;23;20188;-89
2022/10/03 01:35:00;;;;;;;13.17;2.80;;;10.70;99.90;;;;;;6243545;23;20145;-88
2022/10/03 01:37:38;;;;;;;18.02;3.65;;;10.70;99.90;;;;;;6243705;23;20150;-88
2022/10/03 01:40:15;;;;;;;11.87;3.10;;;10.70;99.90;;;;;;6243754;23;20217;-88
2022/10/03 01:43:01;;;;;;;16.67;2.70;;;10.70;99.90;;;;;;6243379;23;20260;-88
2022/10/03 01:45:46;;;;;;;16.13;2.93;;;10.70;93.10;;;;;;6243815;23;20252;-88
2022/10/03 01:48:18;;;;;;;12.80;2.60;;;10.80;99.90;;;;;;6243553;23;20149;-88
2022/10/03 01:51:03;;;;;;;14.50;3.10;;;10.90;99.90;;;;;;6243412;23;20533;-88
2022/10/03 01:53:44;;;;;;;11.30;2.43;;;10.70;99.90;;;;;;6242587;23;20201;-88
2022/10/03 01:56:43;;;;;;;9.60;2.47;;;10.70;99.90;;;;;;6243151;23;20638;-89
2022/10/03 01:59:27;;;;;;;12.47;3.10;;;10.70;99.90;;;;;;6237250;23;20180;-88
2022/10/03 02:02:06;;;;;;;16.30;3.03;;;10.70;99.90;;;;;;6243294;23;20239;-88
2022/10/03 02:04:50;;;;;;;8.50;2.23;;;10.70;99.90;;;;;;6243293;23;20260;-88
2022/10/03 02:07:28;;;;;;;11.67;2.30;;;10.70;99.90;;;;;;6243592;23;20550;-88
2022/10/03 02:10:02;;;;;;;10.93;2.80;;;10.70;99.90;;;;;;6245291;22;20633;-88
2022/10/03 02:12:40;;;;;;;15.03;2.73;;;10.70;99.90;;;;;;6244031;23;20208;-89
2022/10/03 02:15:24;;;;;;;11.43;2.67;;;10.70;99.90;;;;;;6244072;23;20608;-88
2022/10/03 02:17:51;;;;;;;15.07;2.90;;;10.70;99.90;;;;;;6243640;23;20150;-89
2022/10/03 02:20:42;;;;;;;16.10;3.23;;;10.70;99.90;;;;;;6244578;23;20505;-88
2022/10/03 02:23:25;;;;;;;12.60;2.40;;;10.70;89.00;;;;;;6263856;23;20196;-90
2022/10/03 02:26:00;;;;;;;9.43;2.50;;;10.80;99.90;;;;;;6270372;23;20162;-90
2022/10/03 02:29:03;;;;;;;12.55;2.95;;;10.70;17.10;;;;;;6270024;23;20157;-89
2022/10/03 02:32:13;;;;;;;11.50;2.83;;;10.70;99.90;;;;;;6270414;23;20161;-89
2022/10/03 02:35:01;;;;;;;18.33;2.43;;;10.70;99.90;;;;;;6222020;23;20173;-90
2022/10/03 02:38:04;;;;;;;12.53;2.60;;;10.60;99.90;;;;;;6270065;23;20165;-90
2022/10/03 02:40:49;;;;;;;10.55;2.65;;;10.60;99.90;;;;;;6271447;22;20153;-89
2022/10/03 02:43:45;;;;;;;22.77;3.37;;;10.60;99.90;;;;;;6269488;23;20161;-89
2022/10/03 02:46:57;;;;;;;11.83;3.13;;;10.60;99.90;;;;;;6270205;23;20211;-89
2022/10/03 02:49:57;;;;;;;11.23;2.63;;;10.60;99.90;;;;;;6125492;23;20208;-90
2022/10/03 02:52:58;;;;;;;13.47;2.83;;;10.60;99.90;;;;;;6268826;23;20208;-89
2022/10/03 02:55:45;;;;;;;11.87;2.37;;;10.60;99.90;;;;;;6268798;23;20160;-89
2022/10/03 02:58:42;;;;;;;14.30;2.40;;;10.50;99.90;;;;;;6269407;23;20154;-89
2022/10/03 03:01:17;;;;;;;10.63;2.63;;;10.40;1.00;;;;;;6268915;23;20145;-90
2022/10/03 03:03:53;;;;;;;18.17;3.17;;;10.20;1.00;;;;;;6269855;23;20217;-90
2022/10/03 03:06:31;;;;;;;15.23;2.70;;;10.20;99.90;;;;;;6269691;23;20188;-89
2022/10/03 03:09:24;;;;;;;14.13;2.93;;;10.10;99.90;;;;;;6269000;23;20149;-90
2022/10/03 03:12:06;;;;;;;11.83;3.30;;;9.90;1.00;;;;;;6268497;22;20186;-90
2022/10/03 03:15:10;;;;;;;16.03;2.97;;;9.90;1.00;;;;;;6267733;23;20233;-90
2022/10/03 03:17:46;;;;;;;15.73;3.20;;;9.80;1.00;;;;;;6268580;22;20134;-89
2022/10/03 03:20:40;;;;;;;13.80;2.67;;;9.80;87.70;;;;;;6268327;23;20145;-91
2022/10/03 03:23:27;;;;;;;15.47;2.73;;;9.70;99.90;;;;;;6266979;23;20178;-89
2022/10/03 03:26:14;;;;;;;12.17;3.13;;;9.70;99.90;;;;;;6260479;23;20219;-88
2022/10/03 03:28:45;;;;;;;10.97;2.33;;;9.60;1.00;;;;;;6266982;22;20181;-89
2022/10/03 03:31:23;;;;;;;17.23;3.20;;;9.60;99.90;;;;;;6267810;22;20201;-91
2022/10/03 03:33:58;;;;;;;14.20;2.53;;;9.50;99.90;;;;;;6268280;22;20172;-89
2022/10/03 03:36:55;;;;;;;14.77;2.67;;;9.50;99.90;;;;;;6267761;22;20493;-90
2022/10/03 03:39:50;;;;;;;9.30;2.57;;;9.40;1.00;;;;;;6268382;23;20166;-91
2022/10/03 03:42:24;;;;;;;15.07;3.33;;;9.40;1.00;;;;;;6253388;23;20176;-89
2022/10/03 03:45:18;;;;;;;14.00;2.67;;;9.40;1.00;;;;;;6267269;23;20177;-90
2022/10/03 03:48:37;;;;;;;13.63;2.50;;;9.40;1.00;;;;;;6267803;22;20180;-90
2022/10/03 03:51:05;;;;;;;12.43;2.90;;;9.40;99.90;;;;;;6246573;22;20161;-89
2022/10/03 03:53:49;;;;;;;13.70;3.00;;;9.40;99.90;;;;;;6268218;23;20197;-90
2022/10/03 03:56:50;;;;;;;14.33;3.07;;;9.40;99.90;;;;;;6269403;22;20149;-90
2022/10/03 03:59:25;;;;;;;16.10;3.17;;;9.40;99.90;;;;;;6268533;22;20171;-91
2022/10/03 04:02:06;;;;;;;15.57;3.37;;;9.40;99.90;;;;;;6269101;22;20168;-91
2022/10/03 04:04:40;;;;;;;15.63;3.10;;;9.40;99.90;;;;;;6268345;22;20596;-90
2022/10/03 04:07:32;;;;;;;13.70;3.30;;;9.40;99.90;;;;;;6269320;22;20141;-90
2022/10/03 04:10:13;;;;;;;20.73;3.10;;;9.50;99.90;;;;;;6244318;23;20134;-90
2022/10/03 04:12:54;;;;;;;13.77;2.93;;;9.60;1.00;;;;;;6268238;22;20279;-90
2022/10/03 04:15:42;;;;;;;12.27;3.00;;;9.60;1.00;;;;;;6268857;22;20161;-90
2022/10/03 04:21:57;;;;;;;17.03;3.10;;;9.70;1.00;;;;;;6269194;23;20198;-89
2022/10/03 04:24:35;;;;;;;17.07;2.80;;;9.80;99.90;;;;;;6268051;22;20134;-90
2022/10/03 04:27:19;;;;;;;13.50;3.07;;;10.10;99.90;;;;;;6268657;22;20133;-91
2022/10/03 04:29:56;;;;;;;14.23;3.10;;;9.90;99.90;;;;;;6264975;23;20156;-90
2022/10/03 04:32:40;;;;;;;11.67;2.63;;;9.90;99.90;;;;;;6266744;23;20177;-90
2022/10/03 04:35:43;;;;;;;19.17;3.23;;;9.90;99.90;;;;;;6269523;22;20161;-90
2022/10/03 04:38:43;;;;;;;20.10;5.37;;;9.80;1.00;;;;;;6245625;22;20161;-91
2022/10/03 04:41:27;;;;;;;19.13;5.57;;;9.70;1.00;;;;;;6268085;23;20377;-90
2022/10/03 04:44:31;;;;;;;32.90;11.63;;;9.70;1.00;;;;;;6269559;22;20507;-90
2022/10/03 04:47:07;;;;;;;15.40;5.03;;;9.60;1.00;;;;;;6268127;22;20169;-89
2022/10/03 04:49:41;;;;;;;31.07;12.97;;;9.60;79.30;;;;;;6269188;22;20153;-90
2022/10/03 04:52:48;;;;;;;27.23;4.90;;;9.70;99.90;;;;;;6268634;23;20191;-89
2022/10/03 04:55:25;;;;;;;22.70;7.13;;;9.70;99.90;;;;;;6266126;23;20157;-90
2022/10/03 04:58:04;;;;;;;19.63;6.93;;;9.70;99.90;;;;;;6243664;23;20215;-88
2022/10/03 05:00:53;;;;;;;22.27;7.17;;;9.70;99.90;;;;;;6240663;23;20153;-88
2022/10/03 05:04:04;;;;;;;18.37;6.23;;;9.80;99.90;;;;;;6239506;23;20190;-88
2022/10/03 05:06:48;;;;;;;27.37;7.73;;;9.90;99.90;;;;;;6239720;23;20191;-88
2022/10/03 05:09:17;;;;;;;21.13;7.20;;;9.80;80.40;;;;;;6239816;23;20150;-89
2022/10/03 05:12:27;;;;;;;21.60;6.50;;;9.70;1.00;;;;;;6238894;23;20182;-89
2022/10/03 05:15:15;;;;;;;25.37;8.20;;;9.70;1.00;;;;;;6239182;23;20683;-88
2022/10/03 05:18:12;;;;;;;21.67;8.30;;;9.70;1.00;;;;;;6239160;23;20158;-88
2022/10/03 05:21:04;;;;;;;17.33;4.77;;;9.60;1.00;;;;;;6239129;23;20153;-88
2022/10/03 05:24:04;;;;;;;19.70;6.10;;;9.70;1.00;;;;;;6239197;23;20268;-89
2022/10/03 05:26:53;;;;;;;16.97;4.70;;;9.60;1.00;;;;;;6238312;23;20185;-87
2022/10/03 05:29:40;;;;;;;25.77;4.83;;;9.70;1.00;;;;;;6239542;23;20158;-88
2022/10/03 05:32:47;;;;;;;16.33;4.47;;;9.70;1.00;;;;;;6238791;23;20169;-88
2022/10/03 05:35:41;;;;;;;15.77;4.47;;;9.70;1.00;;;;;;6238721;23;20188;-88
2022/10/03 05:38:14;;;;;;;18.90;4.00;;;9.60;1.00;;;;;;6239330;23;20235;-88
2022/10/03 05:41:07;;;;;;;18.63;4.20;;;9.60;1.00;;;;;;6241152;23;20153;-88
2022/10/03 05:43:57;;;;;;;17.67;4.30;;;9.60;99.90;;;;;;6239744;23;20190;-88
2022/10/03 05:46:56;;;;;;;13.03;2.70;;;9.60;99.90;;;;;;6237638;23;20212;-89
2022/10/03 05:49:52;;;;;;;16.33;2.73;;;9.60;99.90;;;;;;6239501;23;20614;-89
2022/10/03 05:52:23;;;;;;;13.43;3.30;;;9.50;99.90;;;;;;6240567;23;20800;-89
2022/10/03 05:55:28;;;;;;;16.27;3.20;;;9.60;1.00;;;;;;6239760;23;20181;-89
2022/10/03 05:58:25;;;;;;;16.07;2.83;;;9.60;1.00;;;;;;6240205;23;20237;-89
2022/10/03 06:01:13;;;;;;;13.57;2.63;;;9.70;99.90;;;;;;6239920;23;20176;-88
2022/10/03 06:04:13;;;;;;;15.67;3.67;;;9.70;99.90;;;;;;6240154;23;20153;-89
2022/10/03 06:07:13;;;;;;;15.60;3.60;;;9.90;99.90;;;;;;6243502;23;20189;-88
2022/10/03 06:10:07;;;;;;;10.77;2.57;;;9.90;1.00;;;;;;6241579;23;20489;-89
2022/10/03 06:12:57;;;;;;;11.23;3.00;;;10.10;1.00;;;;;;6242083;23;20177;-89
2022/10/03 06:15:36;;;;;;;12.93;2.37;;;10.20;99.90;;;;;;6244564;23;20150;-90
2022/10/03 06:18:38;;;;;;;13.83;3.37;;;10.20;1.00;;;;;;6246140;23;20158;-88
2022/10/03 06:21:31;;;;;;;10.10;2.50;;;10.30;1.00;;;;;;6245497;23;20660;-89
2022/10/03 06:24:21;;;;;;;11.83;2.47;;;10.30;29.70;;;;;;6240853;23;20657;-88
2022/10/03 06:27:02;;;;;;;12.97;2.40;;;10.30;1.00;;;;;;6238515;23;20169;-89
2022/10/03 06:29:43;;;;;;;8.77;1.90;;;10.40;1.00;;;;;;6239432;23;20495;-89
2022/10/03 06:32:53;;;;;;;10.60;2.23;;;10.50;1.00;;;;;;6239287;23;20626;-89
2022/10/03 06:35:53;;;;;;;10.70;2.47;;;10.50;1.00;;;;;;6243101;23;20629;-88
2022/10/03 06:38:46;;;;;;;10.23;2.27;;;10.60;99.90;;;;;;6244049;23;20177;-89
2022/10/03 06:41:47;;;;;;;9.35;2.20;;;10.70;1.00;;;;;;6244346;23;20229;-89
2022/10/03 06:44:47;;;;;;;11.30;2.42;;;10.80;1.00;;;;;;6243734;23;20149;-89
2022/10/03 06:47:26;;;;;;;10.30;3.03;;;10.80;1.00;;;;;;6244083;23;20155;-89
2022/10/03 06:50:26;;;;;;;12.07;3.00;;;10.80;1.00;;;;;;6243274;23;20237;-90
2022/10/03 06:52:59;;;;;;;7.23;2.27;;;10.80;99.90;;;;;;6243635;23;20181;-89
2022/10/03 06:55:59;;;;;;;10.23;2.70;;;10.70;99.90;;;;;;6244382;23;20154;-89
2022/10/03 06:58:26;;;;;;;8.70;2.03;;;10.60;99.90;;;;;;6243699;23;20153;-89
2022/10/03 07:01:16;;;;;;;11.93;2.87;;;10.60;99.90;;;;;;6241720;23;20168;-86
2022/10/03 07:03:50;;;;;;;8.63;2.23;;;10.70;1.00;;;;;;6239121;23;20154;-89
2022/10/03 07:06:47;;;;;;;9.77;2.27;;;10.60;1.00;;;;;;6237791;23;20625;-88
2022/10/03 07:09:34;;;;;;;9.73;2.20;;;10.60;1.00;;;;;;6238642;23;20153;-89
2022/10/03 07:12:15;;;;;;;13.60;2.37;;;10.60;1.00;;;;;;6237221;23;20181;-88
2022/10/03 07:14:57;;;;;;;8.97;1.73;;;10.70;99.90;;;;;;6237223;23;20903;-88
2022/10/03 07:17:33;;;;;;;9.60;2.30;;;10.70;99.90;;;;;;6237881;23;20161;-88
2022/10/03 07:20:29;;;;;;;12.03;2.63;;;10.80;99.90;;;;;;6238306;23;20617;-88
2022/10/03 07:22:55;;;;;;;11.40;2.20;;;11.00;1.00;;;;;;6237032;23;20524;-89
2022/10/03 07:25:50;;;;;;;12.53;4.00;;;11.30;99.90;;;;;;6239204;23;20177;-89
2022/10/03 07:28:43;;;;;;;10.27;2.60;;;11.30;1.00;;;;;;6169258;23;20221;-91
2022/10/03 07:31:41;;;;;;;12.43;2.37;;;11.40;99.90;;;;;;6239741;23;20162;-89
2022/10/03 07:34:16;;;;;;;10.65;2.92;;;11.60;99.90;;;;;;6240029;23;20238;-88
2022/10/03 07:39:44;;;;;;;8.80;2.25;;;11.90;1.00;;;;;;6239718;23;20152;-89
2022/10/03 07:42:47;;;;;;;11.35;2.28;;;12.00;1.00;;;;;;6235423;23;20181;-89
2022/10/03 07:45:29;;;;;;;7.93;2.35;;;11.90;1.00;;;;;;6235716;23;20195;-89
2022/10/03 07:48:32;;;;;;;9.00;2.47;;;12.10;1.00;;;;;;6243895;22;20138;-88
2022/10/03 07:51:23;;;;;;;10.68;3.15;;;12.10;1.00;;;;;;6236366;23;20157;-89
2022/10/03 07:54:18;;;;;;;9.50;3.25;;;12.20;99.90;;;;;;6236102;23;20256;-88
2022/10/03 07:57:02;;;;;;;8.45;3.47;;;12.30;99.90;;;;;;6235287;23;20157;-88
2022/10/03 07:59:44;;;;;;;10.98;2.53;;;12.30;99.90;;;;;;6235414;23;20154;-88
2022/10/03 08:03:04;;;;;;;7.07;2.45;;;12.50;99.90;;;;;;6236199;23;20260;-87
2022/10/03 08:05:57;;;;;;;12.30;2.15;;;12.60;99.90;;;;;;6090861;23;20786;-88
2022/10/03 08:08:49;;;;;;;10.07;2.05;;;12.70;99.90;;;;;;6233423;23;20220;-88
2022/10/03 08:11:48;;;;;;;9.25;3.35;;;12.80;99.90;;;;;;6235075;23;20367;-88
2022/10/03 08:14:39;;;;;;;9.15;2.40;;;12.80;99.90;;;;;;6235376;23;20154;-88
2022/10/03 08:17:35;;;;;;;13.80;2.25;;;12.70;99.90;;;;;;6235691;23;20661;-87
2022/10/03 08:20:28;;;;;;;11.27;2.00;;;12.70;99.90;;;;;;6236148;23;20153;-89
2022/10/03 08:23:36;;;;;;;8.73;2.05;;;12.50;99.90;;;;;;6235004;23;20184;-89
2022/10/03 08:26:14;;;;;;;8.02;2.40;;;12.40;99.90;;;;;;6202365;23;20181;-88
2022/10/03 08:29:15;;;;;;;7.97;2.20;;;12.40;99.90;;;;;;6235462;23;20162;-88
2022/10/03 08:32:29;;;;;;;13.02;3.25;;;12.60;99.90;;;;;;6235120;23;20181;-88
2022/10/03 08:35:04;;;;;;;10.75;2.80;;;12.70;99.90;;;;;;6235452;23;20648;-88
2022/10/03 08:38:01;;;;;;;9.65;2.30;;;12.80;99.90;;;;;;6234497;23;20153;-88
2022/10/03 08:40:29;;;;;;;10.70;2.65;;;13.10;99.90;;;;;;6234662;23;20264;-88
2022/10/03 08:43:14;;;;;;;15.57;2.72;;;13.10;99.90;;;;;;6234357;23;20196;-88
2022/10/03 08:46:05;;;;;;;8.57;2.63;;;13.10;99.90;;;;;;6235121;23;20264;-89
2022/10/03 08:48:45;;;;;;;9.43;2.40;;;13.40;99.90;;;;;;6233692;23;20161;-87
2022/10/03 08:51:34;;;;;;;9.52;2.10;;;13.50;99.90;;;;;;6234760;23;20154;-90
2022/10/03 08:54:01;;;;;;;5.95;1.90;;;13.40;99.90;;;;;;6165584;23;20484;-88
2022/10/03 08:56:45;;;;;;;12.18;5.03;;;13.50;99.90;;;;;;6234412;23;20502;-88
2022/10/03 08:59:55;;;;;;;12.80;4.20;;;13.40;99.90;;;;;;6234545;23;20157;-88
2022/10/03 09:02:59;;;;;;;10.57;3.33;;;13.30;99.90;;;;;;6234749;23;20219;-88
2022/10/03 09:05:49;;;;;;;14.52;4.30;;;13.30;99.90;;;;;;6234812;23;20185;-88
2022/10/03 09:08:37;;;;;;;15.77;6.55;;;13.50;99.90;;;;;;6234651;23;20212;-88
2022/10/03 09:11:51;;;;;;;18.48;6.65;;;13.40;99.90;;;;;;6236375;22;20221;-87
2022/10/03 09:14:26;;;;;;;16.42;6.18;;;13.40;99.90;;;;;;6227668;23;20149;-89
2022/10/03 09:17:25;;;;;;;15.95;5.78;;;13.40;99.90;;;;;;6235792;22;20546;-88
2022/10/03 09:20:18;;;;;;;17.05;5.35;;;13.50;99.90;;;;;;6235840;23;20225;-87
2022/10/03 09:23:21;;;;;;;15.13;4.68;;;13.60;99.90;;;;;;6234391;23;20479;-87
2022/10/03 09:26:11;;;;;;;19.95;7.43;;;13.80;99.90;;;;;;6237264;23;20177;-87
2022/10/03 09:28:56;;;;;;;20.92;8.35;;;13.90;99.90;;;;;;6234156;23;20150;-88
2022/10/03 09:31:24;;;;;;;20.02;4.78;;;14.10;96.60;;;;;;6235727;22;20153;-88
2022/10/03 09:34:08;;;;;;;18.17;6.93;;;14.10;78.40;;;;;;6234358;23;20534;-89
2022/10/03 09:36:51;;;;;;;16.90;6.22;;;14.30;54.80;;;;;;6234210;23;20381;-88
2022/10/03 09:40:03;;;;;;;14.30;5.13;;;14.40;48.50;;;;;;6234274;23;20568;-88
2022/10/03 09:42:56;;;;;;;13.25;5.13;;;14.40;33.30;;;;;;6233632;23;20602;-87
2022/10/03 09:45:40;;;;;;;13.63;5.53;;;14.70;39.70;;;;;;6234191;23;20192;-88
2022/10/03 09:48:22;;;;;;;16.60;5.47;;;14.60;28.40;;;;;;6234068;23;20154;-88
2022/10/03 09:51:03;;;;;;;9.73;3.35;;;14.80;21.90;;;;;;6235044;23;20233;-87
2022/10/03 09:54:01;;;;;;;12.60;5.00;;;14.90;4.20;;;;;;6236337;23;20602;-87
2022/10/03 09:56:54;;;;;;;9.63;3.00;;;14.90;1.00;;;;;;6234214;23;20510;-87
2022/10/03 09:59:35;;;;;;;11.75;4.75;;;15.20;1.00;;;;;;6234328;23;20161;-88
2022/10/03 10:02:34;;;;;;;10.63;2.45;;;15.30;1.00;;;;;;6235872;22;20177;-88
2022/10/03 10:05:15;;;;;;;7.97;2.63;;;15.30;1.00;;;;;;6233841;23;20247;-89
2022/10/03 10:07:46;;;;;;;10.48;2.90;;;15.30;1.00;;;;;;6233707;23;20150;-89
2022/10/03 10:10:46;;;;;;;10.55;2.67;;;15.60;1.00;;;;;;6235651;23;20168;-88
2022/10/03 10:13:20;;;;;;;9.25;2.80;;;15.80;1.00;;;;;;6235541;23;20534;-88
2022/10/03 10:15:56;;;;;;;8.10;3.13;;;15.70;1.00;;;;;;6235715;23;20199;-87
2022/10/03 10:18:48;;;;;;;6.93;2.72;;;15.60;1.00;;;;;;6232588;23;20177;-88
2022/10/03 10:22:02;;;;;;;8.75;2.38;;;15.50;1.00;;;;;;6235333;23;20229;-86
2022/10/03 10:24:55;;;;;;;9.30;2.08;;;15.50;1.00;;;;;;6095238;23;20218;-87
2022/10/03 10:27:29;;;;;;;8.95;2.15;;;15.30;1.00;;;;;;6096920;23;20801;-87
2022/10/03 10:30:23;;;;;;;6.53;2.25;;;15.10;1.00;;;;;;6215256;22;20157;-88
2022/10/03 10:33:07;;;;;;;8.50;2.67;;;15.20;1.00;;;;;;6235392;22;20170;-87
2022/10/03 10:35:51;;;;;;;9.10;2.40;;;15.30;1.00;;;;;;6238996;23;20153;-88
2022/10/03 10:38:58;;;;;;;8.07;1.85;;;15.30;1.00;;;;;;6239800;23;20181;-88
2022/10/03 10:41:45;;;;;;;7.63;2.13;;;15.30;1.00;;;;;;6242022;23;20231;-87
2022/10/03 10:44:22;;;;;;;12.05;2.60;;;15.40;1.00;;;;;;6241670;23;20158;-87
2022/10/03 10:47:12;;;;;;;8.45;2.58;;;15.20;1.00;;;;;;6242134;23;20245;-86
2022/10/03 10:50:06;;;;;;;9.35;2.50;;;15.00;1.00;;;;;;6240826;23;20145;-87
2022/10/03 10:52:51;;;;;;;9.32;2.42;;;15.10;1.00;;;;;;6241605;23;20181;-87
2022/10/03 10:55:35;;;;;;;9.43;1.77;;;15.50;1.00;;;;;;6242235;23;20166;-87
2022/10/03 10:58:23;;;;;;;9.52;2.22;;;15.50;1.00;;;;;;6247253;23;20150;-87
2022/10/03 11:01:27;;;;;;;9.25;2.10;;;15.50;1.00;;;;;;6242553;23;20154;-86
2022/10/03 11:03:53;;;;;;;6.15;1.40;;;15.60;1.00;;;;;;6242963;23;20160;-88
2022/10/03 11:06:58;;;;;;;9.02;2.08;;;15.60;1.00;;;;;;6236552;23;20189;-88
2022/10/03 11:09:38;;;;;;;7.25;2.95;;;15.60;1.00;;;;;;6233687;23;20236;-88
2022/10/03 11:12:22;;;;;;;10.95;4.00;;;15.60;1.00;;;;;;6232657;23;20183;-88
2022/10/03 11:14:53;;;;;;;8.07;3.10;;;15.30;1.00;;;;;;6234439;23;20149;-88
2022/10/03 11:17:43;;;;;;;6.20;2.60;;;15.00;1.00;;;;;;6233018;23;20223;-88
2022/10/03 11:20:27;;;;;;;8.55;3.10;;;14.80;1.00;;;;;;6234260;23;20157;-88
2022/10/03 11:23:17;;;;;;;10.38;2.45;;;14.70;1.00;;;;;;6234703;23;20188;-88
2022/10/03 11:25:52;;;;;;;16.38;6.05;;;14.80;1.00;;;;;;6236194;23;20480;-87
2022/10/03 11:28:39;;;;;;;14.25;4.30;;;14.90;1.00;;;;;;6234796;22;20842;-88
2022/10/03 11:31:24;;;;;;;7.70;2.60;;;15.10;1.00;;;;;;6233819;23;20212;-88
2022/10/03 11:34:11;;;;;;;5.80;2.10;;;15.30;1.00;;;;;;6235401;22;20148;-87
2022/10/03 11:37:02;;;;;;;8.57;2.03;;;15.20;1.00;;;;;;6236320;23;20643;-88
2022/10/03 11:39:43;;;;;;;7.00;2.55;;;15.30;1.00;;;;;;6232947;23;20166;-88
2022/10/03 11:42:36;;;;;;;7.00;2.35;;;15.40;1.00;;;;;;6234493;23;20173;-88
2022/10/03 11:45:05;;;;;;;8.43;4.03;;;15.30;1.00;;;;;;6232278;23;20186;-88
2022/10/03 11:48:14;;;;;;;6.25;2.75;;;15.40;1.00;;;;;;6232547;23;20215;-88
2022/10/03 11:51:08;;;;;;;94.63;64.63;;;15.30;1.00;;;;;;6111214;23;20172;-87
2022/10/03 11:53:59;;;;;;;227.93;132.20;;;15.20;1.00;;;;;;6226789;23;20231;-88
2022/10/03 11:56:40;;;;;;;347.92;193.10;;;15.00;1.00;;;;;;6234059;22;20229;-88
2022/10/03 11:59:31;;;;;;;257.65;81.32;;;15.10;1.00;;;;;;6233133;23;20215;-87
2022/10/03 12:02:13;;;;;;;84.25;55.78;;;15.00;1.00;;;;;;6232501;23;20192;-87
2022/10/03 12:04:53;;;;;;;40.85;30.42;;;15.00;1.00;;;;;;6232824;23;20493;-88
2022/10/03 12:10:37;;;;;;;164.55;98.03;;;15.60;1.00;;;;;;6221906;23;20157;-89
2022/10/03 12:13:11;;;;;;;707.80;372.30;;;15.90;1.00;;;;;;6246357;22;20332;-89
2022/10/03 12:15:37;;;;;;;204.38;150.77;;;16.00;1.00;;;;;;6245454;23;20276;-89
2022/10/03 12:18:03;;;;;;;37.40;22.65;;;16.10;1.00;;;;;;6244759;23;20208;-89
2022/10/03 12:21:05;;;;;;;336.13;185.60;;;16.30;1.00;;;;;;6246900;23;20569;-90
2022/10/03 12:23:55;;;;;;;52.90;35.75;;;16.20;1.00;;;;;;6247775;23;20635;-89
2022/10/03 12:26:29;;;;;;;8.75;4.68;;;16.30;1.00;;;;;;6243668;23;20177;-89
2022/10/03 12:28:56;;;;;;;18.17;8.63;;;16.20;1.00;;;;;;6241665;23;20241;-89
2022/10/03 12:31:28;;;;;;;10.70;4.40;;;16.10;1.00;;;;;;6242528;23;20232;-89
2022/10/03 12:34:21;;;;;;;11.15;4.63;;;16.00;1.00;;;;;;6243166;23;20142;-89
2022/10/03 12:37:06;;;;;;;13.50;5.35;;;15.90;1.00;;;;;;6175125;23;20157;-89
2022/10/03 12:39:53;;;;;;;12.20;4.35;;;15.70;1.00;;;;;;6247533;22;20145;-90
2022/10/03 12:42:25;;;;;;;8.55;2.67;;;15.50;1.00;;;;;;6243975;23;20178;-89
2022/10/03 12:45:23;;;;;;;6.28;3.03;;;15.30;1.00;;;;;;6245249;23;20640;-89
2022/10/03 12:48:00;;;;;;;9.50;3.92;;;15.40;1.00;;;;;;6246733;23;20481;-90
2022/10/03 12:50:53;;;;;;;8.75;3.92;;;15.50;1.00;;;;;;6251703;23;20161;-87
2022/10/03 12:53:39;;;;;;;8.70;2.63;;;15.50;1.00;;;;;;6240479;23;20197;-86
2022/10/03 12:56:32;;;;;;;6.68;3.50;;;15.60;1.00;;;;;;6241258;22;20538;-87
2022/10/03 12:59:10;;;;;;;10.98;3.83;;;15.60;1.00;;;;;;6238608;23;20169;-87
2022/10/03 13:02:11;;;;;;;9.00;2.58;;;15.60;1.00;;;;;;6238031;23;20181;-87
2022/10/03 13:05:16;;;;;;;7.57;2.38;;;15.40;1.00;;;;;;6237463;23;20267;-87
2022/10/03 13:07:56;;;;;;;8.82;1.52;;;15.30;1.00;;;;;;6238499;23;20150;-87
2022/10/03 13:10:32;;;;;;;6.43;1.70;;;15.40;1.00;;;;;;6239784;22;20188;-86
2022/10/03 13:13:35;;;;;;;7.10;1.83;;;15.60;1.00;;;;;;6234926;23;20697;-86
2022/10/03 13:16:34;;;;;;;7.10;1.95;;;15.80;1.00;;;;;;6233412;23;20546;-87
2022/10/03 13:19:13;;;;;;;4.72;1.63;;;15.80;1.00;;;;;;6235230;23;20158;-86
2022/10/03 13:22:02;;;;;;;6.95;2.10;;;15.60;1.00;;;;;;6232340;23;20192;-87
2022/10/03 13:25:00;;;;;;;6.97;1.80;;;15.70;1.00;;;;;;6232765;23;20157;-88
2022/10/03 13:27:31;;;;;;;5.40;2.13;;;15.70;1.00;;;;;;6234913;23;20166;-90
2022/10/03 13:30:24;;;;;;;4.93;1.75;;;15.80;1.00;;;;;;6237256;23;20154;-87
2022/10/03 13:32:58;;;;;;;7.30;2.00;;;16.00;1.00;;;;;;6226982;23;20188;-88
2022/10/03 13:38:36;;;;;;;4.47;1.70;;;16.00;1.00;;;;;;6233314;23;20165;-88
2022/10/03 13:41:08;;;;;;;9.07;3.10;;;15.90;1.00;;;;;;6234924;22;20217;-86
2022/10/03 13:43:37;;;;;;;6.18;2.35;;;15.70;1.00;;;;;;6236134;23;20568;-87
2022/10/03 13:46:13;;;;;;;8.35;4.32;;;15.60;1.00;;;;;;6232561;23;20632;-87
2022/10/03 13:48:43;;;;;;;8.35;2.75;;;15.50;1.00;;;;;;6231741;23;20160;-88
2022/10/03 13:51:22;;;;;;;9.43;4.28;;;15.70;1.00;;;;;;6231836;23;20657;-87
2022/10/03 13:54:14;;;;;;;10.80;3.53;;;15.70;1.00;;;;;;6231408;23;20184;-88
2022/10/03 13:57:15;;;;;;;11.50;4.35;;;15.70;1.00;;;;;;6231338;23;20158;-87
2022/10/03 14:00:01;;;;;;;7.22;3.47;;;15.90;1.00;;;;;;6100225;22;20673;-88
2022/10/03 14:02:58;;;;;;;7.70;3.00;;;15.80;1.00;;;;;;6233053;22;20687;-89
2022/10/03 14:05:36;;;;;;;14.20;5.20;;;15.70;1.00;;;;;;6201409;23;20197;-88
2022/10/03 14:08:31;;;;;;;8.65;4.13;;;15.30;1.00;;;;;;6230901;23;20629;-88
2022/10/03 14:11:06;;;;;;;8.63;2.95;;;15.40;1.00;;;;;;6167936;23;20208;-88
2022/10/03 14:13:34;;;;;;;8.43;2.92;;;15.40;1.00;;;;;;6235951;23;20180;-86
2022/10/03 14:16:21;;;;;;;7.10;3.38;;;15.40;1.00;;;;;;6235866;23;20169;-87
2022/10/03 14:19:00;;;;;;;8.65;4.28;;;15.40;1.00;;;;;;6236397;23;20161;-86
2022/10/03 14:21:35;;;;;;;7.90;3.60;;;15.30;1.00;;;;;;6231716;23;20153;-87
2022/10/03 14:24:41;;;;;;;6.20;3.20;;;15.40;1.00;;;;;;6229527;23;20214;-87
2022/10/03 14:27:37;;;;;;;7.63;3.58;;;15.50;1.00;;;;;;6230827;23;20615;-87
2022/10/03 14:30:11;;;;;;;8.05;3.78;;;15.60;1.00;;;;;;6233269;23;20160;-87
2022/10/03 14:32:46;;;;;;;8.90;3.55;;;15.70;1.00;;;;;;6232027;23;20523;-90
2022/10/03 14:35:44;;;;;;;7.75;3.88;;;15.80;1.00;;;;;;6231572;23;20188;-87
2022/10/03 14:41:45;;;;;;;6.03;2.20;;;15.70;1.00;;;;;;6233731;23;20932;-87
2022/10/03 14:44:17;;;;;;;8.88;2.80;;;15.60;1.00;;;;;;6232207;23;20162;-88
2022/10/03 14:47:01;;;;;;;4.63;1.50;;;15.60;1.00;;;;;;6231988;23;20591;-87
2022/10/03 14:49:35;;;;;;;5.53;2.38;;;15.70;1.00;;;;;;6232593;23;20589;-87